Time;durP1;ratioP1;P1;durP2;ratioP2;P2;SDS_P1;SDS_P2;PMS_P1;PMS_P2;Temp;Humidity;BMP_temperature;BMP_pressure;BME280_temperature;BME280_humidity;BME280_pressure;Samples;Min_cycle;Max_cycle;Signal;HPM_P1;HPM_P2
2022/05/19 00:01:25;;;;;;;15.32;14.43;;;24.60;52.70;;;;;;5011773;28;19936;-76
2022/05/19 00:03:51;;;;;;;14.25;13.43;;;24.60;52.80;;;;;;4995985;28;20475;-76
2022/05/19 00:06:17;;;;;;;15.18;14.18;;;24.60;52.80;;;;;;4995704;28;20049;-76
2022/05/19 00:08:43;;;;;;;15.38;14.48;;;24.50;53.00;;;;;;5014197;28;20030;-76
2022/05/19 00:11:14;;;;;;;16.27;15.05;;;24.50;53.00;;;;;;5014041;28;20033;-76
2022/05/19 00:13:40;;;;;;;15.98;14.63;;;24.40;53.10;;;;;;5013560;28;20036;-76
2022/05/19 00:16:06;;;;;;;15.55;14.75;;;24.40;53.40;;;;;;5011239;28;20048;-76
2022/05/19 00:18:33;;;;;;;15.68;14.88;;;24.30;53.50;;;;;;4996877;28;20041;-76
2022/05/19 00:20:59;;;;;;;16.67;15.57;;;24.30;53.70;;;;;;5012363;28;20049;-76
2022/05/19 00:23:26;;;;;;;15.82;14.95;;;24.20;53.90;;;;;;5012426;28;20030;-76
2022/05/19 00:25:52;;;;;;;15.98;14.90;;;24.20;54.10;;;;;;5011167;28;20494;-76
2022/05/19 00:28:18;;;;;;;16.42;15.52;;;24.10;54.30;;;;;;5011867;28;20053;-76
2022/05/19 00:30:44;;;;;;;16.67;15.60;;;24.10;54.20;;;;;;4993866;28;20030;-76
2022/05/19 00:33:11;;;;;;;16.73;15.55;;;24.00;54.60;;;;;;5012337;28;20034;-76
2022/05/19 00:35:38;;;;;;;15.93;15.13;;;23.90;54.70;;;;;;4990782;28;20042;-76
2022/05/19 00:38:04;;;;;;;16.38;15.30;;;23.90;54.80;;;;;;5012604;28;20026;-76
2022/05/19 00:40:31;;;;;;;16.13;15.23;;;23.80;54.90;;;;;;5012318;28;20410;-76
2022/05/19 00:42:57;;;;;;;16.77;15.38;;;23.80;54.70;;;;;;5010587;28;20038;-76
2022/05/19 00:45:26;;;;;;;15.77;14.75;;;23.80;54.90;;;;;;5011912;28;20044;-76
2022/05/19 00:48:00;;;;;;;16.08;14.90;;;23.60;55.40;;;;;;5011087;28;20025;-76
2022/05/19 00:50:33;;;;;;;15.45;14.55;;;23.60;55.30;;;;;;5012296;28;20033;-76
2022/05/19 00:53:04;;;;;;;15.25;14.23;;;23.70;55.30;;;;;;5012432;28;20025;-76
2022/05/19 00:55:35;;;;;;;15.90;14.90;;;23.60;55.10;;;;;;5011936;28;20391;-76
2022/05/19 00:58:05;;;;;;;15.38;14.48;;;23.60;55.50;;;;;;5012427;28;20041;-76
2022/05/19 01:00:31;;;;;;;15.70;14.52;;;23.40;55.60;;;;;;4994570;28;20038;-76
2022/05/19 01:02:58;;;;;;;15.98;14.98;;;23.30;55.90;;;;;;4995883;28;20046;-76
2022/05/19 01:05:40;;;;;;;15.27;14.30;;;23.20;56.10;;;;;;5011864;28;20022;-76
2022/05/19 01:08:16;;;;;;;15.55;14.48;;;23.00;56.60;;;;;;5011822;28;20531;-76
2022/05/19 01:10:42;;;;;;;15.30;14.32;;;22.90;56.90;;;;;;4999999;28;20021;-77
2022/05/19 01:13:09;;;;;;;15.25;14.25;;;22.80;57.00;;;;;;5010951;28;20041;-76
2022/05/19 01:15:37;;;;;;;15.38;14.15;;;22.60;57.70;;;;;;4995852;28;20034;-76
2022/05/19 01:18:03;;;;;;;15.25;14.35;;;22.40;58.10;;;;;;5011743;28;20034;-75
2022/05/19 01:20:29;;;;;;;15.30;14.15;;;22.30;58.50;;;;;;5011191;28;20049;-76
2022/05/19 01:22:55;;;;;;;15.43;14.40;;;22.30;58.70;;;;;;4995496;28;20046;-76
2022/05/19 01:25:49;;;;;;;14.88;13.57;;;22.20;58.60;;;;;;5009991;28;20041;-76
2022/05/19 01:28:15;;;;;;;14.18;13.20;;;21.80;59.50;;;;;;5008938;28;20045;-76
2022/05/19 01:30:42;;;;;;;16.08;14.93;;;21.50;60.10;;;;;;4978705;28;20041;-76
2022/05/19 01:33:08;;;;;;;13.40;12.60;;;21.40;60.20;;;;;;5012613;28;20029;-76
2022/05/19 01:35:34;;;;;;;13.70;12.60;;;21.20;60.10;;;;;;5007139;28;20030;-76
2022/05/19 01:38:01;;;;;;;13.98;12.50;;;21.10;60.20;;;;;;4994827;28;20038;-76
2022/05/19 01:40:37;;;;;;;13.95;13.05;;;21.00;60.30;;;;;;5011014;28;20849;-76
2022/05/19 01:43:22;;;;;;;12.93;12.13;;;20.90;60.00;;;;;;4991296;28;20427;-76
2022/05/19 01:46:10;;;;;;;13.07;12.18;;;20.90;59.80;;;;;;5012398;28;20041;-76
2022/05/19 01:48:47;;;;;;;13.82;12.73;;;20.90;59.60;;;;;;5016703;28;20037;-76
2022/05/19 01:51:48;;;;;;;13.25;12.32;;;20.90;59.60;;;;;;4999376;28;20030;-75
2022/05/19 01:54:39;;;;;;;13.02;11.93;;;21.00;59.10;;;;;;5014825;28;20029;-77
2022/05/19 01:57:08;;;;;;;13.45;12.25;;;21.00;58.80;;;;;;5015452;28;20045;-76
2022/05/19 01:59:45;;;;;;;12.52;11.50;;;20.70;59.10;;;;;;5015360;28;20036;-75
2022/05/19 02:02:31;;;;;;;12.80;11.95;;;20.60;59.20;;;;;;5012675;28;20498;-76
2022/05/19 02:05:13;;;;;;;11.85;10.98;;;20.40;59.30;;;;;;5004683;28;20036;-75
2022/05/19 02:07:41;;;;;;;12.55;11.45;;;20.30;60.00;;;;;;5004390;28;21777;-76
2022/05/19 02:10:11;;;;;;;12.20;11.40;;;20.30;60.70;;;;;;4989272;28;20042;-76
2022/05/19 02:12:38;;;;;;;12.48;11.63;;;20.30;59.80;;;;;;4996364;28;20235;-77
2022/05/19 02:15:07;;;;;;;11.95;11.25;;;20.10;60.50;;;;;;5006961;28;20479;-79
2022/05/19 02:17:33;;;;;;;12.50;11.50;;;20.00;61.00;;;;;;5010376;28;20032;-79
2022/05/19 02:20:10;;;;;;;11.70;10.80;;;19.80;61.30;;;;;;4992797;28;20034;-78
2022/05/19 02:22:39;;;;;;;11.40;10.50;;;19.80;61.80;;;;;;4993744;28;20487;-76
2022/05/19 02:25:45;;;;;;;11.88;10.65;;;19.70;61.80;;;;;;5010919;28;20026;-77
2022/05/19 02:28:20;;;;;;;11.18;10.38;;;19.70;62.10;;;;;;4994616;28;20064;-76
2022/05/19 02:30:46;;;;;;;10.88;10.05;;;19.70;61.90;;;;;;5009454;28;20048;-76
2022/05/19 02:33:13;;;;;;;12.07;11.20;;;19.60;62.30;;;;;;4994175;28;20049;-76
2022/05/19 02:35:39;;;;;;;12.15;11.35;;;19.70;62.10;;;;;;5003417;28;20045;-78
2022/05/19 02:38:05;;;;;;;12.18;11.35;;;19.70;62.30;;;;;;5014079;28;20041;-78
2022/05/19 02:40:33;;;;;;;12.27;11.48;;;19.80;62.10;;;;;;5014671;28;20426;-77
2022/05/19 02:42:59;;;;;;;12.05;11.15;;;20.00;61.40;;;;;;5013749;28;20041;-77
2022/05/19 02:45:26;;;;;;;11.80;11.10;;;20.00;61.00;;;;;;5012453;28;20045;-78
2022/05/19 02:47:52;;;;;;;11.80;11.07;;;19.90;61.20;;;;;;5014209;28;20026;-77
2022/05/19 02:50:19;;;;;;;12.10;11.05;;;19.80;61.90;;;;;;4997788;28;20048;-77
2022/05/19 02:52:45;;;;;;;12.13;11.32;;;19.80;61.70;;;;;;5013856;28;20041;-77
2022/05/19 02:55:11;;;;;;;12.05;11.20;;;19.80;61.60;;;;;;4996607;28;20042;-78
2022/05/19 02:57:38;;;;;;;11.55;10.85;;;19.70;62.10;;;;;;5014092;28;20033;-77
2022/05/19 03:00:09;;;;;;;11.57;10.68;;;19.50;62.70;;;;;;5011850;28;20041;-77
2022/05/19 03:02:35;;;;;;;11.80;10.70;;;19.50;62.90;;;;;;5013076;28;20399;-76
2022/05/19 03:05:03;;;;;;;11.32;10.52;;;19.50;62.90;;;;;;5006641;28;20037;-76
2022/05/19 03:07:29;;;;;;;11.75;10.75;;;19.60;62.60;;;;;;5011278;28;20032;-76
2022/05/19 03:09:55;;;;;;;11.95;11.05;;;19.60;62.50;;;;;;5007217;28;20023;-76
2022/05/19 03:12:21;;;;;;;12.02;11.13;;;19.60;62.60;;;;;;5013800;28;20037;-75
2022/05/19 03:14:47;;;;;;;11.80;10.95;;;19.70;62.50;;;;;;5005052;28;20487;-75
2022/05/19 03:17:13;;;;;;;12.18;11.10;;;19.80;62.30;;;;;;5001759;28;20049;-75
2022/05/19 03:19:39;;;;;;;12.20;11.40;;;19.90;61.70;;;;;;5005858;28;20033;-75
2022/05/19 03:22:06;;;;;;;12.50;11.45;;;20.10;61.10;;;;;;5014096;28;20038;-75
2022/05/19 03:24:32;;;;;;;12.63;11.52;;;20.20;60.60;;;;;;4998146;28;20034;-75
2022/05/19 03:26:58;;;;;;;12.45;11.70;;;20.20;60.60;;;;;;5012061;28;20037;-75
2022/05/19 03:29:24;;;;;;;12.60;11.57;;;20.20;60.50;;;;;;4996850;28;20068;-75
2022/05/19 03:31:50;;;;;;;12.45;11.65;;;20.30;60.50;;;;;;5008768;28;20034;-75
2022/05/19 03:34:17;;;;;;;12.65;11.73;;;20.30;59.90;;;;;;5002412;28;20033;-75
2022/05/19 03:36:44;;;;;;;12.80;11.82;;;20.40;59.80;;;;;;5011296;28;20022;-76
2022/05/19 03:39:10;;;;;;;12.13;11.32;;;20.50;59.60;;;;;;4994261;28;20030;-76
2022/05/19 03:41:36;;;;;;;12.52;11.73;;;20.60;59.40;;;;;;4990900;28;20041;-77
2022/05/19 03:44:03;;;;;;;12.77;12.02;;;20.50;59.40;;;;;;5013277;28;20033;-77
2022/05/19 03:46:29;;;;;;;12.55;11.65;;;20.60;59.00;;;;;;5012319;28;20034;-76
2022/05/19 03:48:55;;;;;;;12.90;12.10;;;20.70;59.00;;;;;;5010162;28;20030;-76
2022/05/19 03:51:23;;;;;;;12.98;11.98;;;20.70;58.80;;;;;;4993214;28;20062;-76
2022/05/19 03:53:50;;;;;;;13.55;12.52;;;20.70;58.60;;;;;;4987388;28;20037;-77
2022/05/19 03:56:17;;;;;;;12.98;12.18;;;20.70;58.70;;;;;;5011015;28;20022;-76
2022/05/19 03:58:43;;;;;;;13.20;12.30;;;20.70;58.80;;;;;;4993286;28;20045;-76
2022/05/19 04:01:09;;;;;;;13.52;12.48;;;20.70;58.80;;;;;;5011709;28;20030;-76
2022/05/19 04:03:35;;;;;;;14.10;13.00;;;20.70;58.90;;;;;;5013366;28;20045;-76
2022/05/19 04:06:02;;;;;;;13.57;12.57;;;20.70;59.00;;;;;;5012191;28;20034;-76
2022/05/19 04:08:28;;;;;;;13.48;12.27;;;20.70;59.20;;;;;;5013234;28;20030;-76
2022/05/19 04:10:54;;;;;;;14.02;12.88;;;20.60;59.30;;;;;;5008340;28;20026;-76
2022/05/19 04:13:20;;;;;;;14.02;12.80;;;20.50;59.40;;;;;;5012017;28;20037;-76
2022/05/19 04:15:46;;;;;;;12.82;12.02;;;20.50;59.40;;;;;;5011266;28;20049;-76
2022/05/19 04:18:12;;;;;;;13.43;12.52;;;20.50;59.30;;;;;;5012446;28;20491;-76
2022/05/19 04:20:38;;;;;;;12.77;11.98;;;20.50;60.20;;;;;;5012525;28;20040;-76
2022/05/19 04:23:04;;;;;;;13.43;12.20;;;20.60;59.40;;;;;;5013028;28;20407;-76
2022/05/19 04:25:31;;;;;;;13.02;12.02;;;20.50;59.30;;;;;;5012694;28;20030;-76
2022/05/19 04:27:57;;;;;;;12.82;11.93;;;20.50;59.60;;;;;;4995749;28;20049;-76
2022/05/19 04:30:23;;;;;;;13.05;12.07;;;20.50;59.60;;;;;;5013494;28;20069;-76
2022/05/19 04:32:50;;;;;;;13.07;11.98;;;20.50;59.80;;;;;;4995377;28;20045;-76
2022/05/19 04:35:16;;;;;;;13.05;12.15;;;20.50;59.90;;;;;;5012125;28;20041;-76
2022/05/19 04:37:42;;;;;;;12.73;11.88;;;20.40;59.80;;;;;;4995976;28;20038;-76
2022/05/19 04:40:09;;;;;;;13.27;12.25;;;20.30;60.00;;;;;;5011020;28;20041;-76
2022/05/19 04:42:35;;;;;;;12.43;11.73;;;20.30;60.00;;;;;;5012507;28;20045;-76
2022/05/19 04:45:01;;;;;;;12.15;11.25;;;20.20;60.40;;;;;;5012523;28;20467;-76
2022/05/19 04:47:27;;;;;;;12.60;11.45;;;20.20;61.00;;;;;;5013056;28;20041;-76
2022/05/19 04:49:53;;;;;;;12.48;11.57;;;20.10;61.00;;;;;;5013491;28;20133;-76
2022/05/19 04:52:22;;;;;;;12.15;11.05;;;20.10;61.10;;;;;;4995595;28;20050;-76
2022/05/19 04:54:48;;;;;;;12.30;11.30;;;20.10;60.90;;;;;;5010802;28;20046;-76
2022/05/19 04:57:15;;;;;;;12.52;11.55;;;20.00;61.50;;;;;;5012150;28;20041;-75
2022/05/19 04:59:41;;;;;;;12.18;11.00;;;20.00;61.20;;;;;;5012189;28;20034;-75
2022/05/19 05:02:08;;;;;;;12.25;11.23;;;20.00;61.40;;;;;;5011940;28;20046;-76
2022/05/19 05:04:34;;;;;;;12.43;11.48;;;20.00;61.20;;;;;;4995336;28;20375;-77
2022/05/19 05:07:00;;;;;;;12.90;11.95;;;20.00;61.30;;;;;;4991202;28;20426;-76
2022/05/19 05:09:26;;;;;;;12.25;11.23;;;20.10;61.40;;;;;;5011136;28;20026;-76
2022/05/19 05:11:52;;;;;;;12.75;11.55;;;20.00;61.40;;;;;;5013304;28;20029;-76
2022/05/19 05:14:18;;;;;;;12.00;11.00;;;20.10;61.30;;;;;;5011690;28;20036;-76
2022/05/19 05:16:48;;;;;;;12.93;11.80;;;20.00;61.40;;;;;;5013111;28;20029;-77
2022/05/19 05:19:18;;;;;;;12.70;11.60;;;20.00;61.60;;;;;;5010106;28;20045;-77
2022/05/19 05:21:45;;;;;;;12.65;11.48;;;20.00;61.80;;;;;;5010053;28;20490;-77
2022/05/19 05:24:11;;;;;;;12.10;11.30;;;20.00;62.00;;;;;;5011178;28;20041;-77
2022/05/19 05:26:37;;;;;;;11.75;10.77;;;19.90;62.40;;;;;;5009773;28;20435;-77
2022/05/19 05:29:03;;;;;;;11.98;10.77;;;19.80;62.70;;;;;;5007669;28;20029;-77
2022/05/19 05:31:30;;;;;;;11.88;10.80;;;19.70;63.30;;;;;;5003628;28;20037;-76
2022/05/19 05:33:56;;;;;;;11.75;10.55;;;19.80;63.60;;;;;;5006190;28;20026;-77
2022/05/19 05:36:22;;;;;;;11.52;10.73;;;19.70;63.90;;;;;;5007130;28;20030;-76
2022/05/19 05:38:48;;;;;;;13.18;10.90;;;19.80;63.90;;;;;;5005661;28;20376;-77
2022/05/19 05:41:14;;;;;;;11.98;11.18;;;19.80;64.00;;;;;;5003709;28;20054;-76
2022/05/19 05:43:40;;;;;;;11.98;10.82;;;19.80;64.00;;;;;;5006927;28;20053;-78
2022/05/19 05:46:09;;;;;;;11.55;10.40;;;19.70;64.80;;;;;;4999462;28;20038;-77
2022/05/19 05:48:36;;;;;;;11.30;10.40;;;19.50;65.30;;;;;;4997290;28;20128;-77
2022/05/19 05:51:06;;;;;;;11.18;10.05;;;19.40;65.60;;;;;;5000734;28;20026;-78
2022/05/19 05:53:33;;;;;;;10.32;9.40;;;19.30;66.10;;;;;;4979698;28;20071;-76
2022/05/19 05:55:59;;;;;;;10.20;9.30;;;19.40;66.40;;;;;;4995556;28;20022;-79
2022/05/19 05:58:25;;;;;;;10.50;9.32;;;19.50;66.40;;;;;;4994356;28;20467;-77
2022/05/19 06:00:51;;;;;;;10.38;9.38;;;19.50;66.40;;;;;;5009419;28;20045;-77
2022/05/19 06:03:17;;;;;;;10.13;9.13;;;19.60;66.30;;;;;;5000389;28;20049;-77
2022/05/19 06:05:43;;;;;;;9.82;9.05;;;19.60;66.20;;;;;;5005328;28;20035;-76
2022/05/19 06:08:09;;;;;;;10.35;9.45;;;19.50;67.20;;;;;;5008151;28;20041;-76
2022/05/19 06:10:36;;;;;;;10.27;9.27;;;19.30;67.40;;;;;;4984519;28;20041;-77
2022/05/19 06:13:02;;;;;;;10.70;9.82;;;19.20;67.70;;;;;;5005221;28;20026;-83
2022/05/19 06:15:29;;;;;;;10.13;9.15;;;19.10;68.00;;;;;;5007454;28;20041;-84
2022/05/19 06:17:55;;;;;;;10.43;9.18;;;18.90;69.10;;;;;;5006867;28;20475;-82
2022/05/19 06:20:21;;;;;;;11.15;9.18;;;18.80;69.60;;;;;;5009091;28;20030;-82
2022/05/19 06:22:48;;;;;;;10.75;9.23;;;18.80;69.20;;;;;;5006274;28;20065;-84
2022/05/19 06:25:16;;;;;;;12.43;8.88;;;18.80;69.40;;;;;;5009699;28;20109;-83
2022/05/19 06:27:43;;;;;;;10.38;9.40;;;18.60;69.80;;;;;;5009391;28;20022;-83
2022/05/19 06:30:12;;;;;;;10.32;9.30;;;18.60;69.90;;;;;;5010253;28;20119;-85
2022/05/19 06:32:39;;;;;;;9.35;8.45;;;18.70;69.60;;;;;;5010080;28;20403;-84
2022/05/19 06:35:06;;;;;;;10.38;8.65;;;18.80;69.00;;;;;;4996170;28;20026;-84
2022/05/19 06:37:32;;;;;;;11.65;8.98;;;18.70;69.10;;;;;;5012082;28;20057;-83
2022/05/19 06:39:58;;;;;;;9.70;8.70;;;18.70;69.30;;;;;;5013995;28;20407;-83
2022/05/19 06:42:25;;;;;;;9.45;8.57;;;18.80;68.90;;;;;;5012047;28;20038;-83
2022/05/19 06:44:51;;;;;;;9.27;8.38;;;18.70;69.20;;;;;;5011859;28;20498;-85
2022/05/19 06:47:17;;;;;;;9.85;8.63;;;18.70;69.00;;;;;;5010768;28;20030;-85
2022/05/19 06:49:49;;;;;;;9.77;8.95;;;18.90;69.10;;;;;;4993723;28;20034;-83
2022/05/19 06:52:17;;;;;;;10.07;9.13;;;18.90;68.30;;;;;;5013519;28;20404;-83
2022/05/19 06:54:51;;;;;;;12.35;10.93;;;19.00;69.10;;;;;;5011829;28;20463;-83
2022/05/19 06:57:19;;;;;;;10.15;9.18;;;18.90;67.90;;;;;;5009369;28;20030;-84
2022/05/19 06:59:46;;;;;;;10.15;9.10;;;18.90;68.10;;;;;;5008196;28;20045;-88
2022/05/19 07:02:13;;;;;;;10.52;9.57;;;19.00;68.20;;;;;;5008637;28;20037;-83
2022/05/19 07:04:39;;;;;;;10.75;9.93;;;19.10;67.90;;;;;;5007996;28;20037;-85
2022/05/19 07:07:05;;;;;;;11.52;10.25;;;19.30;68.00;;;;;;4993433;28;20045;-86
2022/05/19 07:09:32;;;;;;;12.75;10.88;;;19.50;67.30;;;;;;5012491;28;20033;-85
2022/05/19 07:12:00;;;;;;;12.00;11.00;;;19.70;66.30;;;;;;4989722;28;20372;-84
2022/05/19 07:14:26;;;;;;;12.48;11.38;;;19.70;65.80;;;;;;5009455;28;20403;-83
2022/05/19 07:16:53;;;;;;;12.60;11.60;;;19.90;66.30;;;;;;5009636;28;20034;-84
2022/05/19 07:22:05;;;;;;;12.98;11.85;;;19.90;65.80;;;;;;5000527;28;20045;-83
2022/05/19 07:24:31;;;;;;;12.65;11.48;;;19.80;65.00;;;;;;5011147;28;20045;-84
2022/05/19 07:26:57;;;;;;;12.75;11.55;;;19.70;65.40;;;;;;5009199;28;20045;-83
2022/05/19 07:29:24;;;;;;;15.13;11.25;;;19.60;66.30;;;;;;5009451;28;20038;-85
2022/05/19 07:31:50;;;;;;;12.80;11.70;;;19.60;66.50;;;;;;4992258;28;20476;-86
2022/05/19 07:34:18;;;;;;;13.20;12.20;;;19.80;67.20;;;;;;5013496;28;20034;-84
2022/05/19 07:36:44;;;;;;;13.93;12.73;;;20.10;65.30;;;;;;5008175;28;20105;-85
2022/05/19 07:39:11;;;;;;;14.52;13.27;;;20.40;64.80;;;;;;5006685;28;20052;-84
2022/05/19 07:41:38;;;;;;;14.30;13.30;;;20.50;64.90;;;;;;4986608;28;20053;-85
2022/05/19 07:44:04;;;;;;;14.68;13.35;;;20.70;63.90;;;;;;5009644;28;20036;-85
2022/05/19 07:46:30;;;;;;;14.98;13.73;;;20.70;63.00;;;;;;4993361;28;20037;-85
2022/05/19 07:48:56;;;;;;;15.05;13.85;;;20.60;63.40;;;;;;5012608;28;20026;-86
2022/05/19 07:51:23;;;;;;;14.90;13.68;;;20.50;63.60;;;;;;5006649;28;20037;-84
2022/05/19 07:53:50;;;;;;;14.63;13.23;;;20.50;63.90;;;;;;5005669;28;20373;-87
2022/05/19 07:56:16;;;;;;;14.88;13.57;;;20.50;63.70;;;;;;4984597;28;20069;-84
2022/05/19 07:58:44;;;;;;;13.77;12.70;;;20.20;64.40;;;;;;5006423;28;20057;-86
2022/05/19 08:01:10;;;;;;;13.98;12.90;;;20.10;65.10;;;;;;5009991;28;20041;-86
2022/05/19 08:03:36;;;;;;;14.10;12.80;;;20.10;65.30;;;;;;4992577;28;20045;-82
2022/05/19 08:06:04;;;;;;;14.00;12.70;;;20.20;65.80;;;;;;4986101;28;20033;-79
2022/05/19 08:08:30;;;;;;;14.60;12.82;;;20.30;65.30;;;;;;4999037;28;20046;-83
2022/05/19 08:10:57;;;;;;;13.70;12.35;;;20.40;65.40;;;;;;5002099;28;20494;-82
2022/05/19 08:16:07;;;;;;;13.68;12.52;;;20.50;64.80;;;;;;5014253;28;20037;-75
2022/05/19 08:18:33;;;;;;;12.98;11.57;;;20.50;66.30;;;;;;5008599;28;20041;-76
2022/05/19 08:21:04;;;;;;;12.15;10.95;;;20.50;67.20;;;;;;5009350;28;20400;-75
2022/05/19 08:23:35;;;;;;;11.73;10.68;;;20.10;69.20;;;;;;5006185;28;20066;-75
2022/05/19 08:26:02;;;;;;;11.10;10.10;;;20.10;70.30;;;;;;4988208;28;20026;-75
2022/05/19 08:28:31;;;;;;;11.38;10.48;;;20.00;70.70;;;;;;5004861;28;20122;-76
2022/05/19 08:30:59;;;;;;;11.60;10.35;;;20.00;71.70;;;;;;5007876;28;20042;-76
2022/05/19 08:33:25;;;;;;;11.80;10.80;;;20.20;71.20;;;;;;4987076;28;20040;-75
2022/05/19 08:35:52;;;;;;;12.13;10.68;;;20.30;71.10;;;;;;5005252;28;20034;-75
2022/05/19 08:38:19;;;;;;;12.25;11.02;;;20.40;71.20;;;;;;4983608;28;20396;-75
2022/05/19 08:40:57;;;;;;;12.27;10.65;;;20.50;70.90;;;;;;5006069;28;20038;-75
2022/05/19 08:43:25;;;;;;;12.05;11.05;;;20.70;71.10;;;;;;5010537;28;20046;-75
2022/05/19 08:45:53;;;;;;;12.48;11.27;;;20.70;70.20;;;;;;5005788;28;20037;-75
2022/05/19 08:48:22;;;;;;;12.38;11.30;;;20.70;70.90;;;;;;5017995;28;20021;-75
2022/05/19 08:50:52;;;;;;;12.60;11.40;;;20.90;70.60;;;;;;5016205;28;20026;-75
2022/05/19 08:53:19;;;;;;;17.52;12.88;;;21.20;70.00;;;;;;5007752;28;20037;-79
2022/05/19 08:55:52;;;;;;;15.18;13.95;;;21.30;67.60;;;;;;5001595;28;20029;-79
2022/05/19 08:58:21;;;;;;;15.98;14.70;;;21.40;66.30;;;;;;4992030;28;20045;-78
2022/05/19 09:00:57;;;;;;;16.05;14.80;;;21.70;67.70;;;;;;5007503;28;20081;-76
2022/05/19 09:03:37;;;;;;;16.25;15.18;;;21.70;67.00;;;;;;4990379;28;20037;-79
2022/05/19 09:06:18;;;;;;;16.13;15.13;;;22.00;65.50;;;;;;5009080;28;20363;-77
2022/05/19 09:09:01;;;;;;;16.08;15.18;;;22.20;64.80;;;;;;5004610;28;20026;-77
2022/05/19 09:11:32;;;;;;;15.38;14.00;;;22.50;63.70;;;;;;5010441;28;20032;-79
2022/05/19 09:14:15;;;;;;;17.40;15.75;;;22.40;61.40;;;;;;5007702;28;20364;-77
2022/05/19 09:16:42;;;;;;;15.55;14.45;;;22.50;63.20;;;;;;4976815;28;20034;-77
2022/05/19 09:19:21;;;;;;;16.70;15.60;;;22.70;61.60;;;;;;5008924;28;20030;-79
2022/05/19 09:21:49;;;;;;;16.52;15.25;;;22.80;60.90;;;;;;5011488;28;20467;-76
2022/05/19 09:24:16;;;;;;;16.15;15.07;;;22.70;59.90;;;;;;4979861;28;20049;-75
2022/05/19 09:26:52;;;;;;;16.83;15.55;;;22.70;59.70;;;;;;4993782;28;20467;-75
2022/05/19 09:29:27;;;;;;;15.30;14.20;;;22.70;61.10;;;;;;4991238;28;20493;-81
2022/05/19 09:32:03;;;;;;;16.23;15.02;;;22.80;58.80;;;;;;5007544;28;20409;-80
2022/05/19 09:34:30;;;;;;;15.93;14.73;;;22.80;59.40;;;;;;4990398;28;20053;-80
2022/05/19 09:37:03;;;;;;;15.30;14.40;;;22.80;58.20;;;;;;4995473;28;20042;-78
2022/05/19 09:39:35;;;;;;;15.65;14.65;;;22.60;57.40;;;;;;5010422;28;20030;-79
2022/05/19 09:42:06;;;;;;;15.43;14.38;;;22.30;58.30;;;;;;5013507;28;20037;-78
2022/05/19 09:44:34;;;;;;;14.88;13.93;;;22.40;58.60;;;;;;5018097;28;20418;-79
2022/05/19 09:47:13;;;;;;;15.23;14.27;;;22.40;57.50;;;;;;4988133;28;20025;-79
2022/05/19 09:49:45;;;;;;;16.33;15.13;;;22.40;57.20;;;;;;4991616;28;20049;-79
2022/05/19 09:52:17;;;;;;;15.82;14.70;;;22.40;58.60;;;;;;5011153;28;20049;-80
2022/05/19 09:54:45;;;;;;;16.55;15.45;;;22.70;58.00;;;;;;4995704;28;20030;-79
2022/05/19 09:57:14;;;;;;;16.63;15.18;;;22.40;58.70;;;;;;5009791;28;20033;-80
2022/05/19 09:59:50;;;;;;;16.75;15.55;;;22.40;59.00;;;;;;4995568;28;20042;-81
2022/05/19 10:02:17;;;;;;;16.33;15.32;;;22.70;59.30;;;;;;5004423;28;20041;-74
2022/05/19 10:04:51;;;;;;;17.52;16.38;;;23.00;58.70;;;;;;5009642;28;20034;-74
2022/05/19 10:07:23;;;;;;;17.92;16.73;;;23.20;57.50;;;;;;5003550;28;20375;-74
2022/05/19 10:09:52;;;;;;;18.27;16.85;;;23.20;58.00;;;;;;5006531;28;20034;-74
2022/05/19 10:12:28;;;;;;;18.05;17.00;;;23.40;57.70;;;;;;5009672;28;20014;-74
2022/05/19 10:15:00;;;;;;;18.23;17.02;;;23.40;56.60;;;;;;4995938;28;20034;-76
2022/05/19 10:17:39;;;;;;;17.30;16.15;;;23.20;56.60;;;;;;4993684;28;20034;-76
2022/05/19 10:20:11;;;;;;;16.50;15.48;;;23.00;56.60;;;;;;5000270;28;20045;-78
2022/05/19 10:22:41;;;;;;;16.58;15.55;;;23.00;56.40;;;;;;5003876;28;20044;-77
2022/05/19 10:25:17;;;;;;;16.92;15.82;;;23.20;55.90;;;;;;5005559;28;20050;-77
2022/05/19 10:31:05;;;;;;;16.10;15.18;;;23.20;53.80;;;;;;5010661;28;20045;-77
2022/05/19 10:34:03;;;;;;;16.95;15.85;;;23.20;54.10;;;;;;5013136;28;20034;-77
2022/05/19 10:36:41;;;;;;;16.98;16.00;;;23.50;54.80;;;;;;5009070;28;20624;-77
2022/05/19 10:39:18;;;;;;;16.63;15.52;;;24.00;52.50;;;;;;5027386;28;20033;-76
2022/05/19 10:41:53;;;;;;;17.77;16.70;;;24.10;51.30;;;;;;5025024;28;20054;-74
2022/05/19 10:44:56;;;;;;;18.50;17.40;;;24.30;53.00;;;;;;5012015;28;20038;-74
2022/05/19 10:47:59;;;;;;;18.50;17.50;;;24.60;52.20;;;;;;5018366;28;20850;-76
2022/05/19 10:50:35;;;;;;;16.40;15.55;;;24.70;51.70;;;;;;5021463;28;20036;-77
2022/05/19 10:53:14;;;;;;;17.30;16.10;;;24.90;49.90;;;;;;5020455;28;20513;-77
2022/05/19 10:55:58;;;;;;;17.67;16.67;;;24.90;47.90;;;;;;4986138;28;20049;-79
2022/05/19 10:58:54;;;;;;;17.10;16.10;;;24.70;47.80;;;;;;5025853;28;20558;-78
2022/05/19 11:01:25;;;;;;;17.50;16.40;;;24.40;49.00;;;;;;5010032;28;20029;-79
2022/05/19 11:04:10;;;;;;;16.40;15.40;;;24.20;50.50;;;;;;5010838;28;20148;-78
2022/05/19 11:06:48;;;;;;;15.98;14.95;;;24.00;51.40;;;;;;5025046;28;20049;-78
2022/05/19 11:09:33;;;;;;;15.40;14.50;;;23.90;50.60;;;;;;4993416;28;20037;-77
2022/05/19 11:12:24;;;;;;;15.45;14.55;;;23.90;50.90;;;;;;5017148;28;20044;-76
2022/05/19 11:15:02;;;;;;;16.40;15.50;;;24.20;51.20;;;;;;5011807;28;20478;-79
2022/05/19 11:17:50;;;;;;;16.58;15.60;;;24.30;46.40;;;;;;5019668;28;20037;-78
2022/05/19 11:20:27;;;;;;;15.25;14.38;;;24.10;43.90;;;;;;5011450;28;20470;-79
2022/05/19 11:23:04;;;;;;;16.02;14.93;;;24.20;46.00;;;;;;5009666;28;20029;-75
2022/05/19 11:28:20;;;;;;;16.65;15.68;;;24.50;47.40;;;;;;5011303;28;20041;-75
2022/05/19 11:30:51;;;;;;;17.30;16.20;;;24.80;47.00;;;;;;4995348;28;20086;-77
2022/05/19 11:33:22;;;;;;;16.08;14.98;;;25.10;47.30;;;;;;4995338;28;20041;-79
2022/05/19 11:35:54;;;;;;;17.33;16.33;;;25.20;46.40;;;;;;5011510;28;20034;-78
2022/05/19 11:38:36;;;;;;;17.38;16.38;;;25.30;45.80;;;;;;4994421;28;20032;-76
2022/05/19 11:41:14;;;;;;;17.33;16.35;;;25.50;46.40;;;;;;5009785;28;20053;-76
2022/05/19 11:44:10;;;;;;;17.20;16.30;;;25.60;45.30;;;;;;5000811;28;20018;-78
2022/05/19 11:47:02;;;;;;;17.65;16.60;;;25.70;45.80;;;;;;4997587;28;20053;-79
2022/05/19 11:55:39;;;;;;;21.02;19.92;;;25.70;44.90;;;;;;5030355;28;20505;-76
2022/05/19 11:58:10;;;;;;;18.70;17.70;;;26.00;43.50;;;;;;4993100;28;20053;-76
2022/05/19 12:00:50;;;;;;;19.35;18.35;;;26.10;43.10;;;;;;4997839;28;20423;-79
2022/05/19 12:03:21;;;;;;;21.60;20.27;;;26.20;42.70;;;;;;5011262;28;20033;-78
2022/05/19 12:05:56;;;;;;;21.10;20.08;;;26.40;41.80;;;;;;5011030;28;20132;-80
2022/05/19 12:08:50;;;;;;;518.53;267.55;;;26.50;42.40;;;;;;5009954;28;20036;-78
2022/05/19 12:11:23;;;;;;;22.45;21.25;;;26.70;41.10;;;;;;5014195;28;20053;-79
2022/05/19 12:13:52;;;;;;;22.20;20.70;;;27.00;41.30;;;;;;5006260;28;20037;-78
2022/05/19 12:16:37;;;;;;;23.60;22.25;;;26.90;40.60;;;;;;5006743;28;20037;-79
2022/05/19 12:19:06;;;;;;;1999.90;999.90;;;27.10;40.60;;;;;;4996139;28;20037;-78
2022/05/19 12:21:41;;;;;;;1999.90;999.90;;;27.30;40.50;;;;;;5018174;28;20041;-79
2022/05/19 12:24:11;;;;;;;21.77;20.67;;;26.80;39.10;;;;;;5014033;28;20030;-79
2022/05/19 12:26:43;;;;;;;20.70;19.40;;;26.40;39.20;;;;;;4975444;28;20037;-76
2022/05/19 12:29:14;;;;;;;20.00;18.80;;;26.20;41.50;;;;;;4995778;28;20506;-78
2022/05/19 12:31:59;;;;;;;22.13;21.02;;;26.50;42.00;;;;;;5003767;28;20034;-79
2022/05/19 12:34:31;;;;;;;1999.90;999.90;;;26.80;41.80;;;;;;5007909;28;20038;-78
2022/05/19 12:37:26;;;;;;;1999.90;999.90;;;27.10;39.30;;;;;;5014954;28;20034;-78
2022/05/19 12:39:55;;;;;;;1999.90;999.90;;;27.20;38.70;;;;;;4993291;28;20038;-78
2022/05/19 12:42:35;;;;;;;1999.90;999.90;;;27.30;38.50;;;;;;5010345;28;20038;-79
2022/05/19 12:45:14;;;;;;;1999.90;999.90;;;27.20;37.70;;;;;;4996852;28;20041;-78
2022/05/19 12:47:55;;;;;;;1503.45;753.25;;;27.20;37.00;;;;;;4995169;28;20506;-78
2022/05/19 12:50:22;;;;;;;1999.90;999.90;;;27.20;38.30;;;;;;4985633;28;20025;-76
2022/05/19 12:53:13;;;;;;;1999.90;999.90;;;27.10;35.70;;;;;;4993682;28;20038;-79
2022/05/19 12:55:39;;;;;;;;;;;27.00;36.10;;;;;;5003291;28;20018;-78
2022/05/19 12:58:33;;;;;;;22.50;21.23;;;26.90;37.00;;;;;;5014671;28;19909;-78
2022/05/19 13:01:22;;;;;;;1999.90;999.90;;;26.50;38.50;;;;;;5013233;28;20030;-78
2022/05/19 13:03:54;;;;;;;1505.72;755.42;;;26.90;38.90;;;;;;5003681;28;20033;-79